Kirby, Vermont
Current Conditions -  °F | °C
As of 11:55 PM on Saturday 22 Nov 2014 (Local Time) from KCDA Reporting Station
Overcast Overcast  
Wind Chill: 34°   Ceiling: 1800
Heat Index: 34°   Visibility: 10mi
Dew Point: 22°   Wind: 0mph
Humidity: 62%   Direction: NA
Pressure: 29.93"   Gusts: NA
Location:  44.4417°N, 71.859°W
Report Text: KCDA 230455Z AUTO 00000KT 10SM OVC018 01/M05 A2993 RMK AO2 T00131053 400151101
Loading
Personal Weather Stations






























Interactive Weather Map New forecast layout! Learn more

10-Day Weather Forecast

Advertisements
Track Severe Weather on mobile